sensor_id;sensor_type;location;lat;lon;timestamp;temperature;humidity
29303;DHT22;60019;45.556;12.004;2023-02-15T00:05:03;13.80;79.00
29303;DHT22;60019;45.556;12.004;2023-02-15T00:11:09;13.60;79.40
29303;DHT22;60019;45.556;12.004;2023-02-15T00:17:11;13.50;79.90
29303;DHT22;60019;45.556;12.004;2023-02-15T00:23:12;13.30;80.30
29303;DHT22;60019;45.556;12.004;2023-02-15T00:29:15;13.10;80.50
29303;DHT22;60019;45.556;12.004;2023-02-15T00:35:17;13.00;81.00
29303;DHT22;60019;45.556;12.004;2023-02-15T00:41:18;12.80;82.10
29303;DHT22;60019;45.556;12.004;2023-02-15T00:47:20;12.70;81.70
29303;DHT22;60019;45.556;12.004;2023-02-15T00:53:22;12.60;82.00
29303;DHT22;60019;45.556;12.004;2023-02-15T00:59:23;12.50;82.10
29303;DHT22;60019;45.556;12.004;2023-02-15T01:05:25;12.30;82.10
29303;DHT22;60019;45.556;12.004;2023-02-15T01:11:26;12.20;82.20
29303;DHT22;60019;45.556;12.004;2023-02-15T01:17:28;12.10;82.20
29303;DHT22;60019;45.556;12.004;2023-02-15T01:23:30;12.00;82.20
29303;DHT22;60019;45.556;12.004;2023-02-15T01:29:33;11.90;82.40
29303;DHT22;60019;45.556;12.004;2023-02-15T01:35:36;11.90;82.50
29303;DHT22;60019;45.556;12.004;2023-02-15T01:41:38;11.80;82.70
29303;DHT22;60019;45.556;12.004;2023-02-15T01:47:47;11.70;82.80
29303;DHT22;60019;45.556;12.004;2023-02-15T01:54:03;11.60;83.00
29303;DHT22;60019;45.556;12.004;2023-02-15T02:08:08;11.40;83.20
29303;DHT22;60019;45.556;12.004;2023-02-15T02:14:13;11.30;83.10
29303;DHT22;60019;45.556;12.004;2023-02-15T02:39:15;11.80;84.30
29303;DHT22;60019;45.556;12.004;2023-02-15T02:45:46;12.00;84.30
29303;DHT22;60019;45.556;12.004;2023-02-15T02:52:31;12.20;84.20
29303;DHT22;60019;45.556;12.004;2023-02-15T02:58:31;12.40;83.90
29303;DHT22;60019;45.556;12.004;2023-02-15T03:04:37;12.60;83.70
29303;DHT22;60019;45.556;12.004;2023-02-15T03:10:40;12.70;83.30
29303;DHT22;60019;45.556;12.004;2023-02-15T03:16:45;12.90;83.00
29303;DHT22;60019;45.556;12.004;2023-02-15T03:22:53;13.00;82.70
29303;DHT22;60019;45.556;12.004;2023-02-15T03:28:57;13.10;82.40
29303;DHT22;60019;45.556;12.004;2023-02-15T03:34:59;13.10;82.10
29303;DHT22;60019;45.556;12.004;2023-02-15T03:41:02;13.30;81.90
29303;DHT22;60019;45.556;12.004;2023-02-15T03:47:15;13.30;81.60
29303;DHT22;60019;45.556;12.004;2023-02-15T03:53:19;13.40;81.40
29303;DHT22;60019;45.556;12.004;2023-02-15T03:59:22;13.40;81.10
29303;DHT22;60019;45.556;12.004;2023-02-15T04:05:43;13.40;80.80
29303;DHT22;60019;45.556;12.004;2023-02-15T04:11:45;13.50;80.60
29303;DHT22;60019;45.556;12.004;2023-02-15T04:17:47;13.50;80.50
29303;DHT22;60019;45.556;12.004;2023-02-15T04:23:48;13.50;80.30
29303;DHT22;60019;45.556;12.004;2023-02-15T04:30:10;13.60;80.00
29303;DHT22;60019;45.556;12.004;2023-02-15T04:36:12;13.60;79.90
29303;DHT22;60019;45.556;12.004;2023-02-15T04:42:13;13.60;79.70
29303;DHT22;60019;45.556;12.004;2023-02-15T04:48:15;13.60;79.60
29303;DHT22;60019;45.556;12.004;2023-02-15T04:54:17;13.70;79.50
29303;DHT22;60019;45.556;12.004;2023-02-15T05:00:19;13.70;79.30
29303;DHT22;60019;45.556;12.004;2023-02-15T05:06:21;13.70;79.10
29303;DHT22;60019;45.556;12.004;2023-02-15T05:12:22;13.70;79.00
29303;DHT22;60019;45.556;12.004;2023-02-15T05:18:24;13.70;78.80
29303;DHT22;60019;45.556;12.004;2023-02-15T05:24:26;13.80;78.70
29303;DHT22;60019;45.556;12.004;2023-02-15T05:30:51;13.80;78.40
29303;DHT22;60019;45.556;12.004;2023-02-15T05:36:54;13.80;78.20
29303;DHT22;60019;45.556;12.004;2023-02-15T05:42:56;13.90;78.80
29303;DHT22;60019;45.556;12.004;2023-02-15T05:48:58;13.90;77.90
29303;DHT22;60019;45.556;12.004;2023-02-15T05:55:00;13.90;77.90
29303;DHT22;60019;45.556;12.004;2023-02-15T06:01:17;14.10;78.50
29303;DHT22;60019;45.556;12.004;2023-02-15T06:07:19;14.30;79.00
29303;DHT22;60019;45.556;12.004;2023-02-15T06:13:21;14.40;79.00
29303;DHT22;60019;45.556;12.004;2023-02-15T06:19:23;14.40;79.00
29303;DHT22;60019;45.556;12.004;2023-02-15T06:25:24;14.40;79.00
29303;DHT22;60019;45.556;12.004;2023-02-15T06:31:26;14.40;79.10
29303;DHT22;60019;45.556;12.004;2023-02-15T06:37:28;14.30;80.10
29303;DHT22;60019;45.556;12.004;2023-02-15T06:43:29;14.20;81.10
29303;DHT22;60019;45.556;12.004;2023-02-15T06:49:31;14.10;81.70
29303;DHT22;60019;45.556;12.004;2023-02-15T06:55:33;14.00;82.30
29303;DHT22;60019;45.556;12.004;2023-02-15T07:01:34;14.00;82.60
29303;DHT22;60019;45.556;12.004;2023-02-15T07:07:38;14.00;83.00
29303;DHT22;60019;45.556;12.004;2023-02-15T07:13:39;14.20;84.40
29303;DHT22;60019;45.556;12.004;2023-02-15T07:19:43;14.30;85.00
29303;DHT22;60019;45.556;12.004;2023-02-15T07:25:45;14.40;85.30
29303;DHT22;60019;45.556;12.004;2023-02-15T07:31:47;14.40;85.30
29303;DHT22;60019;45.556;12.004;2023-02-15T07:37:48;14.40;86.00
29303;DHT22;60019;45.556;12.004;2023-02-15T07:43:50;14.40;85.20
29303;DHT22;60019;45.556;12.004;2023-02-15T07:49:51;14.50;85.40
29303;DHT22;60019;45.556;12.004;2023-02-15T07:55:53;14.50;86.10
29303;DHT22;60019;45.556;12.004;2023-02-15T08:01:56;14.20;86.00
29303;DHT22;60019;45.556;12.004;2023-02-15T08:07:58;14.00;85.70
29303;DHT22;60019;45.556;12.004;2023-02-15T08:14:12;13.80;85.10
29303;DHT22;60019;45.556;12.004;2023-02-15T08:20:14;13.60;84.90
29303;DHT22;60019;45.556;12.004;2023-02-15T08:26:15;13.50;84.90
29303;DHT22;60019;45.556;12.004;2023-02-15T08:32:18;13.40;85.00
29303;DHT22;60019;45.556;12.004;2023-02-15T08:38:19;13.30;85.30
29303;DHT22;60019;45.556;12.004;2023-02-15T08:44:21;13.20;85.60
29303;DHT22;60019;45.556;12.004;2023-02-15T08:50:23;13.10;85.90
29303;DHT22;60019;45.556;12.004;2023-02-15T08:56:28;13.10;86.00
29303;DHT22;60019;45.556;12.004;2023-02-15T09:02:31;13.10;86.20
29303;DHT22;60019;45.556;12.004;2023-02-15T09:08:33;13.10;86.30
29303;DHT22;60019;45.556;12.004;2023-02-15T09:14:35;13.10;86.50
29303;DHT22;60019;45.556;12.004;2023-02-15T09:20:36;13.10;86.70
29303;DHT22;60019;45.556;12.004;2023-02-15T09:26:40;13.20;86.90
29303;DHT22;60019;45.556;12.004;2023-02-15T09:32:42;13.20;87.00
29303;DHT22;60019;45.556;12.004;2023-02-15T09:38:44;13.20;87.10
29303;DHT22;60019;45.556;12.004;2023-02-15T09:51:35;13.40;87.20
29303;DHT22;60019;45.556;12.004;2023-02-15T09:59:19;13.40;87.20
29303;DHT22;60019;45.556;12.004;2023-02-15T10:05:40;13.50;87.30
29303;DHT22;60019;45.556;12.004;2023-02-15T10:12:08;13.60;87.40
29303;DHT22;60019;45.556;12.004;2023-02-15T10:18:23;13.70;87.40
29303;DHT22;60019;45.556;12.004;2023-02-15T10:24:45;14.00;87.70
29303;DHT22;60019;45.556;12.004;2023-02-15T10:30:57;14.40;87.70
29303;DHT22;60019;45.556;12.004;2023-02-15T10:46:33;15.30;87.50
29303;DHT22;60019;45.556;12.004;2023-02-15T11:05:44;16.20;87.00
29303;DHT22;60019;45.556;12.004;2023-02-15T11:11:54;16.50;86.60
29303;DHT22;60019;45.556;12.004;2023-02-15T11:18:03;16.80;86.30
29303;DHT22;60019;45.556;12.004;2023-02-15T11:30:20;17.30;85.70
29303;DHT22;60019;45.556;12.004;2023-02-15T11:50:46;17.90;84.60
29303;DHT22;60019;45.556;12.004;2023-02-15T12:11:40;18.40;83.30
29303;DHT22;60019;45.556;12.004;2023-02-15T12:17:52;18.50;83.00
29303;DHT22;60019;45.556;12.004;2023-02-15T12:24:28;18.60;81.20
29303;DHT22;60019;45.556;12.004;2023-02-15T12:30:35;18.00;73.60
29303;DHT22;60019;45.556;12.004;2023-02-15T12:44:35;16.20;73.20
29303;DHT22;60019;45.556;12.004;2023-02-15T12:50:48;16.40;75.30
29303;DHT22;60019;45.556;12.004;2023-02-15T12:56:51;16.60;75.10
29303;DHT22;60019;45.556;12.004;2023-02-15T13:52:24;18.50;76.40
29303;DHT22;60019;45.556;12.004;2023-02-15T13:58:42;18.60;76.20
29303;DHT22;60019;45.556;12.004;2023-02-15T17:52:48;15.60;82.90
29303;DHT22;60019;45.556;12.004;2023-02-15T17:58:50;15.50;83.60
29303;DHT22;60019;45.556;12.004;2023-02-15T18:04:52;15.40;83.70
29303;DHT22;60019;45.556;12.004;2023-02-15T18:11:12;15.30;83.90
29303;DHT22;60019;45.556;12.004;2023-02-15T18:17:38;15.20;83.90
29303;DHT22;60019;45.556;12.004;2023-02-15T18:23:41;15.10;84.20
29303;DHT22;60019;45.556;12.004;2023-02-15T18:29:42;14.90;84.30
29303;DHT22;60019;45.556;12.004;2023-02-15T18:35:45;14.80;84.40
29303;DHT22;60019;45.556;12.004;2023-02-15T18:41:46;14.80;84.60
29303;DHT22;60019;45.556;12.004;2023-02-15T18:47:48;14.70;84.80
29303;DHT22;60019;45.556;12.004;2023-02-15T18:53:51;14.60;85.00
29303;DHT22;60019;45.556;12.004;2023-02-15T18:59:53;14.50;85.10
29303;DHT22;60019;45.556;12.004;2023-02-15T19:05:55;14.50;85.30
29303;DHT22;60019;45.556;12.004;2023-02-15T19:11:57;14.40;85.50
29303;DHT22;60019;45.556;12.004;2023-02-15T19:17:59;14.30;85.60
29303;DHT22;60019;45.556;12.004;2023-02-15T19:24:03;14.20;85.70
29303;DHT22;60019;45.556;12.004;2023-02-15T19:30:30;14.20;86.00
29303;DHT22;60019;45.556;12.004;2023-02-15T19:36:32;14.10;86.20
29303;DHT22;60019;45.556;12.004;2023-02-15T19:42:34;14.00;86.30
29303;DHT22;60019;45.556;12.004;2023-02-15T19:48:36;14.00;86.50
29303;DHT22;60019;45.556;12.004;2023-02-15T19:54:37;13.90;86.80
29303;DHT22;60019;45.556;12.004;2023-02-15T20:00:39;13.90;87.10
29303;DHT22;60019;45.556;12.004;2023-02-15T20:06:41;13.90;87.30
29303;DHT22;60019;45.556;12.004;2023-02-15T20:13:15;13.90;87.60
29303;DHT22;60019;45.556;12.004;2023-02-15T20:26:15;13.80;88.10
29303;DHT22;60019;45.556;12.004;2023-02-15T20:32:18;13.80;88.40
29303;DHT22;60019;45.556;12.004;2023-02-15T20:38:23;13.70;88.60
29303;DHT22;60019;45.556;12.004;2023-02-15T20:44:28;13.70;88.90
29303;DHT22;60019;45.556;12.004;2023-02-15T20:50:33;13.70;89.20
29303;DHT22;60019;45.556;12.004;2023-02-15T20:56:36;13.70;89.50
29303;DHT22;60019;45.556;12.004;2023-02-15T21:02:38;13.70;89.80
29303;DHT22;60019;45.556;12.004;2023-02-15T21:08:40;13.70;89.80
29303;DHT22;60019;45.556;12.004;2023-02-15T21:14:42;13.70;89.90
29303;DHT22;60019;45.556;12.004;2023-02-15T21:20:46;13.80;89.80
29303;DHT22;60019;45.556;12.004;2023-02-15T21:26:48;13.90;89.50
29303;DHT22;60019;45.556;12.004;2023-02-15T21:32:50;14.20;89.40
29303;DHT22;60019;45.556;12.004;2023-02-15T21:38:52;14.40;89.20
29303;DHT22;60019;45.556;12.004;2023-02-15T21:44:56;14.50;89.20
29303;DHT22;60019;45.556;12.004;2023-02-15T21:51:17;14.70;89.10
29303;DHT22;60019;45.556;12.004;2023-02-15T21:57:37;14.80;88.90
29303;DHT22;60019;45.556;12.004;2023-02-15T22:03:39;14.90;88.80
29303;DHT22;60019;45.556;12.004;2023-02-15T22:18:19;15.00;88.60
29303;DHT22;60019;45.556;12.004;2023-02-15T22:24:21;15.00;88.40
29303;DHT22;60019;45.556;12.004;2023-02-15T22:30:26;15.10;88.30
29303;DHT22;60019;45.556;12.004;2023-02-15T22:36:29;15.10;88.00
29303;DHT22;60019;45.556;12.004;2023-02-15T22:42:31;15.10;87.80
29303;DHT22;60019;45.556;12.004;2023-02-15T22:48:33;15.20;87.60
29303;DHT22;60019;45.556;12.004;2023-02-15T22:54:35;15.20;87.40
29303;DHT22;60019;45.556;12.004;2023-02-15T23:00:38;15.20;87.10
29303;DHT22;60019;45.556;12.004;2023-02-15T23:06:40;15.20;87.00
29303;DHT22;60019;45.556;12.004;2023-02-15T23:12:43;15.10;87.00
29303;DHT22;60019;45.556;12.004;2023-02-15T23:19:05;14.90;86.90
29303;DHT22;60019;45.556;12.004;2023-02-15T23:25:10;14.70;86.60
29303;DHT22;60019;45.556;12.004;2023-02-15T23:31:17;14.40;86.50
29303;DHT22;60019;45.556;12.004;2023-02-15T23:37:19;14.20;86.40
29303;DHT22;60019;45.556;12.004;2023-02-15T23:43:21;13.90;86.20
29303;DHT22;60019;45.556;12.004;2023-02-15T23:49:24;13.70;86.20
29303;DHT22;60019;45.556;12.004;2023-02-15T23:55:36;13.50;86.20
